Time;durP1;ratioP1;P1;durP2;ratioP2;P2;SDS_P1;SDS_P2;PMS_P1;PMS_P2;Temp;Humidity;BMP_temperature;BMP_pressure;BME280_temperature;BME280_humidity;BME280_pressure;Samples;Min_cycle;Max_cycle;Signal;HPM_P1;HPM_P2
2022/08/16 00:03:42;;;;;;;1.63;1.17;;;;;;;;;;10475057;28;20044;-79
2022/08/16 00:08:48;;;;;;;1.15;1.00;;;;;;;;;;10486278;28;20052;-79
2022/08/16 00:13:52;;;;;;;1.10;0.93;;;;;;;;;;10479837;28;20048;-79
2022/08/16 00:18:57;;;;;;;1.17;0.80;;;;;;;;;;10482610;28;20041;-79
2022/08/16 00:24:02;;;;;;;0.90;0.80;;;;;;;;;;10480223;28;20057;-79
2022/08/16 00:29:05;;;;;;;1.23;0.80;;;;;;;;;;10475833;28;20041;-80
2022/08/16 00:34:08;;;;;;;2.42;0.88;;;;;;;;;;10471968;28;20068;-79
2022/08/16 00:39:13;;;;;;;1.95;0.88;;;;;;;;;;10475949;28;20094;-79
2022/08/16 00:44:19;;;;;;;0.98;0.80;;;;;;;;;;10484753;28;20033;-79
2022/08/16 00:49:23;;;;;;;1.33;1.00;;;;;;;;;;10479349;28;20283;-79
2022/08/16 00:54:30;;;;;;;1.02;0.82;;;;;;;;;;10484215;28;20053;-79
2022/08/16 00:59:36;;;;;;;1.30;0.82;;;;;;;;;;10478613;28;20061;-79
2022/08/16 01:04:40;;;;;;;1.00;0.85;;;;;;;;;;10492878;28;20052;-79
2022/08/16 01:09:45;;;;;;;0.90;0.80;;;;;;;;;;10486235;28;20048;-79
2022/08/16 01:14:53;;;;;;;1.08;0.88;;;;;;;;;;10472502;28;20181;-79
2022/08/16 01:20:01;;;;;;;2.28;1.08;;;;;;;;;;10484496;28;20044;-79
2022/08/16 01:25:09;;;;;;;1.00;0.90;;;;;;;;;;10474295;28;20029;-79
2022/08/16 01:30:16;;;;;;;1.10;1.00;;;;;;;;;;10492118;28;20090;-79
2022/08/16 01:35:29;;;;;;;0.98;0.88;;;;;;;;;;10481900;28;20052;-79
2022/08/16 01:40:34;;;;;;;1.20;0.85;;;;;;;;;;10464884;28;20933;-79
2022/08/16 01:45:38;;;;;;;2.00;1.30;;;;;;;;;;10463328;28;20444;-79
2022/08/16 01:50:43;;;;;;;1.55;0.90;;;;;;;;;;10472189;28;20127;-79
2022/08/16 01:55:49;;;;;;;5.90;1.10;;;;;;;;;;10515374;28;20061;-79
2022/08/16 02:00:53;;;;;;;1.42;0.77;;;;;;;;;;10466289;28;20053;-80
2022/08/16 02:05:57;;;;;;;1.92;1.10;;;;;;;;;;10490166;28;20061;-80
2022/08/16 02:11:04;;;;;;;0.90;0.85;;;;;;;;;;10470426;28;20548;-80
2022/08/16 02:16:08;;;;;;;0.98;0.80;;;;;;;;;;10471442;28;20069;-79
2022/08/16 02:21:13;;;;;;;0.98;0.77;;;;;;;;;;10472807;28;20053;-79
2022/08/16 02:26:17;;;;;;;1.45;1.05;;;;;;;;;;10469170;28;20037;-79
2022/08/16 02:31:22;;;;;;;0.80;0.77;;;;;;;;;;10465748;28;20041;-79
2022/08/16 02:36:25;;;;;;;1.23;0.70;;;;;;;;;;10472361;28;20068;-80
2022/08/16 02:41:30;;;;;;;2.55;1.00;;;;;;;;;;10504201;28;20408;-80
2022/08/16 02:46:34;;;;;;;1.10;1.00;;;;;;;;;;10468990;28;20045;-79
2022/08/16 02:51:40;;;;;;;1.00;0.90;;;;;;;;;;10470212;28;20108;-79
2022/08/16 02:56:45;;;;;;;2.78;1.20;;;;;;;;;;10471711;28;20164;-79
2022/08/16 03:01:50;;;;;;;3.30;0.87;;;;;;;;;;10473464;28;20408;-79
2022/08/16 03:07:02;;;;;;;1.20;1.00;;;;;;;;;;10470544;28;20104;-79
2022/08/16 03:12:36;;;;;;;1.10;1.00;;;;;;;;;;10466153;28;20052;-79
2022/08/16 03:17:41;;;;;;;1.43;1.07;;;;;;;;;;10473005;28;20135;-79
2022/08/16 03:22:45;;;;;;;1.52;1.15;;;;;;;;;;10502167;28;20060;-80
2022/08/16 03:27:52;;;;;;;0.70;0.70;;;;;;;;;;10509043;28;20076;-79
2022/08/16 03:32:58;;;;;;;2.10;1.10;;;;;;;;;;10473279;28;20041;-79
2022/08/16 03:38:08;;;;;;;1.38;1.27;;;;;;;;;;10481454;28;20041;-79
2022/08/16 03:43:20;;;;;;;1.50;1.02;;;;;;;;;;10487775;28;20076;-79
2022/08/16 03:48:31;;;;;;;2.00;0.98;;;;;;;;;;10481805;28;20094;-79
2022/08/16 03:53:40;;;;;;;1.50;1.10;;;;;;;;;;10502826;28;20048;-80
2022/08/16 03:58:45;;;;;;;1.08;0.90;;;;;;;;;;10511088;28;20582;-79
2022/08/16 04:03:49;;;;;;;0.88;0.88;;;;;;;;;;10491348;28;20049;-79
2022/08/16 04:08:53;;;;;;;2.55;1.00;;;;;;;;;;10507555;28;20036;-79
2022/08/16 04:13:58;;;;;;;1.30;1.08;;;;;;;;;;10499361;28;20041;-79
2022/08/16 04:19:08;;;;;;;1.20;0.82;;;;;;;;;;10501434;28;20043;-79
2022/08/16 04:24:11;;;;;;;1.30;1.02;;;;;;;;;;10504242;28;20096;-79
2022/08/16 04:29:17;;;;;;;0.80;0.80;;;;;;;;;;10481438;28;20219;-80
2022/08/16 04:34:21;;;;;;;1.38;1.20;;;;;;;;;;10474815;28;20057;-80
2022/08/16 04:39:27;;;;;;;1.50;1.17;;;;;;;;;;10484474;28;20056;-79
2022/08/16 04:44:32;;;;;;;1.45;1.00;;;;;;;;;;10476713;28;20168;-79
2022/08/16 04:49:36;;;;;;;1.10;1.00;;;;;;;;;;10490587;28;20066;-80
2022/08/16 04:54:40;;;;;;;1.73;1.08;;;;;;;;;;10510734;28;20059;-80
2022/08/16 04:59:45;;;;;;;1.40;1.10;;;;;;;;;;10506413;28;20051;-80
2022/08/16 05:04:48;;;;;;;1.17;1.00;;;;;;;;;;10514607;28;20083;-80
2022/08/16 05:09:51;;;;;;;1.88;1.15;;;;;;;;;;10512543;28;20040;-80
2022/08/16 05:14:56;;;;;;;1.67;1.02;;;;;;;;;;10547234;28;20106;-80
2022/08/16 05:20:00;;;;;;;1.08;0.80;;;;;;;;;;10492075;28;20504;-80
2022/08/16 05:25:14;;;;;;;1.17;1.08;;;;;;;;;;10502867;28;20037;-79
2022/08/16 05:30:24;;;;;;;3.15;1.00;;;;;;;;;;10504182;28;20036;-80
2022/08/16 05:35:27;;;;;;;1.13;1.00;;;;;;;;;;10503140;28;20052;-79
2022/08/16 05:40:40;;;;;;;1.50;0.90;;;;;;;;;;10504700;28;20064;-79
2022/08/16 05:45:46;;;;;;;1.20;1.10;;;;;;;;;;10504154;28;20105;-79
2022/08/16 05:50:51;;;;;;;1.25;1.10;;;;;;;;;;10545479;28;20094;-80
2022/08/16 05:55:54;;;;;;;1.75;1.27;;;;;;;;;;10543972;28;20048;-80
2022/08/16 06:00:59;;;;;;;1.50;0.95;;;;;;;;;;10500486;28;20045;-80
2022/08/16 06:06:03;;;;;;;1.10;0.98;;;;;;;;;;10506504;28;20021;-81
2022/08/16 06:11:10;;;;;;;2.15;1.15;;;;;;;;;;10493900;28;20045;-80
2022/08/16 06:16:16;;;;;;;1.45;1.08;;;;;;;;;;10510623;28;20071;-80
2022/08/16 06:21:19;;;;;;;1.20;1.00;;;;;;;;;;10527396;28;20055;-80
2022/08/16 06:26:24;;;;;;;1.50;0.80;;;;;;;;;;10505934;28;20176;-80
2022/08/16 06:31:28;;;;;;;1.75;0.82;;;;;;;;;;10510215;28;20048;-79
2022/08/16 06:36:33;;;;;;;1.05;0.93;;;;;;;;;;10518662;28;20044;-78
2022/08/16 06:42:03;;;;;;;1.38;1.27;;;;;;;;;;10502217;28;20048;-80
2022/08/16 06:47:20;;;;;;;3.03;1.27;;;;;;;;;;10516818;28;20062;-80
2022/08/16 06:52:23;;;;;;;3.70;1.65;;;;;;;;;;10508737;28;20037;-80
2022/08/16 06:57:27;;;;;;;1.20;1.05;;;;;;;;;;10516359;28;20052;-80
2022/08/16 07:02:32;;;;;;;1.25;1.15;;;;;;;;;;10499896;28;20187;-81
2022/08/16 07:07:38;;;;;;;2.75;2.35;;;;;;;;;;10489088;28;20048;-80
2022/08/16 07:12:42;;;;;;;2.00;1.40;;;;;;;;;;10550716;28;20040;-80
2022/08/16 07:17:48;;;;;;;3.33;2.17;;;;;;;;;;10538131;28;20082;-80
2022/08/16 07:22:55;;;;;;;;;;;;;;;;;;10514577;28;20037;-80
2022/08/16 07:28:14;;;;;;;3.22;2.25;;;;;;;;;;10506739;28;19920;-79
2022/08/16 07:33:19;;;;;;;5.00;3.13;;;;;;;;;;10486073;28;20060;-79
2022/08/16 07:38:26;;;;;;;3.45;1.83;;;;;;;;;;10501740;28;20344;-80
2022/08/16 07:43:32;;;;;;;1.52;1.23;;;;;;;;;;10504127;28;20068;-81
2022/08/16 07:48:40;;;;;;;1.20;1.10;;;;;;;;;;10490367;28;20041;-80
2022/08/16 07:53:48;;;;;;;2.10;1.23;;;;;;;;;;10513774;28;20044;-81
2022/08/16 07:58:51;;;;;;;1.73;1.58;;;;;;;;;;10509176;28;20466;-80
2022/08/16 08:03:57;;;;;;;1.65;1.30;;;;;;;;;;10502761;28;20044;-80
2022/08/16 08:09:09;;;;;;;1.02;0.90;;;;;;;;;;10501808;28;20036;-80
2022/08/16 08:14:14;;;;;;;1.30;1.02;;;;;;;;;;10495227;28;20040;-80
2022/08/16 08:19:22;;;;;;;1.50;0.95;;;;;;;;;;10537568;28;20645;-81
2022/08/16 08:24:26;;;;;;;2.20;1.70;;;;;;;;;;10499723;28;20381;-80
2022/08/16 08:29:30;;;;;;;1.67;1.00;;;;;;;;;;10500636;28;20045;-80
2022/08/16 08:34:36;;;;;;;1.05;0.95;;;;;;;;;;10468861;28;20067;-81
2022/08/16 08:39:40;;;;;;;3.25;1.60;;;;;;;;;;10484073;28;20504;-80
2022/08/16 08:44:45;;;;;;;0.80;0.80;;;;;;;;;;10495094;28;20045;-79
2022/08/16 08:49:51;;;;;;;1.25;1.10;;;;;;;;;;10500498;28;20045;-80
2022/08/16 08:54:55;;;;;;;1.92;1.20;;;;;;;;;;10501127;28;20278;-80
2022/08/16 08:59:59;;;;;;;1.48;0.90;;;;;;;;;;10484690;28;20078;-81
2022/08/16 09:05:04;;;;;;;2.65;1.35;;;;;;;;;;10495175;28;20037;-79
2022/08/16 09:10:08;;;;;;;1.20;1.10;;;;;;;;;;10483669;28;20060;-79
2022/08/16 09:15:14;;;;;;;1.80;1.45;;;;;;;;;;10500899;28;20067;-80
2022/08/16 09:20:24;;;;;;;2.15;1.50;;;;;;;;;;10529566;28;20779;-79
2022/08/16 09:25:28;;;;;;;1.35;0.98;;;;;;;;;;10500301;28;20051;-79
2022/08/16 09:30:33;;;;;;;1.60;1.15;;;;;;;;;;10501445;28;20044;-80
2022/08/16 09:35:38;;;;;;;0.88;0.60;;;;;;;;;;10457823;28;20051;-80
2022/08/16 09:40:43;;;;;;;0.65;0.65;;;;;;;;;;10470168;28;20051;-80
2022/08/16 09:45:47;;;;;;;0.60;0.57;;;;;;;;;;10503940;28;20075;-80
2022/08/16 09:50:51;;;;;;;1.83;1.10;;;;;;;;;;10490183;28;20528;-79
2022/08/16 09:55:56;;;;;;;1.00;0.90;;;;;;;;;;10491924;28;20045;-80
2022/08/16 10:00:59;;;;;;;1.30;1.17;;;;;;;;;;10519981;28;20033;-79
2022/08/16 10:06:04;;;;;;;0.80;0.80;;;;;;;;;;10486498;28;20101;-79
2022/08/16 10:16:35;;;;;;;0.80;0.60;;;;;;;;;;10376094;28;20573;-77
2022/08/16 10:21:40;;;;;;;0.50;0.50;;;;;;;;;;10481414;28;20703;-78
2022/08/16 10:26:43;;;;;;;0.98;0.60;;;;;;;;;;10466681;28;20045;-77
2022/08/16 10:31:47;;;;;;;1.27;0.60;;;;;;;;;;10465389;28;20532;-78
2022/08/16 10:36:51;;;;;;;0.80;0.60;;;;;;;;;;10475828;28;20037;-77
2022/08/16 10:41:55;;;;;;;1.02;0.70;;;;;;;;;;10471113;28;20139;-77
2022/08/16 10:46:58;;;;;;;1.98;0.90;;;;;;;;;;10472538;28;20045;-77
2022/08/16 10:52:03;;;;;;;0.65;0.57;;;;;;;;;;10484108;28;20033;-78
2022/08/16 10:57:07;;;;;;;0.50;0.50;;;;;;;;;;10483638;28;20119;-78
2022/08/16 11:02:10;;;;;;;1.85;0.75;;;;;;;;;;10452822;28;20065;-78
2022/08/16 11:07:30;;;;;;;1.50;0.90;;;;;;;;;;10476615;28;20041;-78
2022/08/16 11:12:49;;;;;;;0.70;0.70;;;;;;;;;;10457781;28;20106;-78
2022/08/16 11:17:54;;;;;;;2.15;0.50;;;;;;;;;;10465830;28;20455;-78
2022/08/16 11:23:18;;;;;;;1.65;1.00;;;;;;;;;;10481356;28;20051;-77
2022/08/16 11:28:23;;;;;;;0.98;0.45;;;;;;;;;;10479241;28;20037;-78
2022/08/16 11:33:46;;;;;;;1.38;0.70;;;;;;;;;;10474943;28;20060;-78
2022/08/16 11:38:59;;;;;;;0.93;0.47;;;;;;;;;;10486210;28;20029;-78
2022/08/16 11:44:03;;;;;;;0.63;0.60;;;;;;;;;;10515479;28;20033;-78
2022/08/16 11:49:07;;;;;;;0.70;0.50;;;;;;;;;;10504675;28;20033;-78
2022/08/16 11:54:15;;;;;;;1.27;0.65;;;;;;;;;;10493174;28;20036;-78
2022/08/16 11:59:18;;;;;;;0.45;0.40;;;;;;;;;;10520006;28;20047;-78
2022/08/16 12:04:22;;;;;;;0.77;0.65;;;;;;;;;;10496493;28;20432;-78
2022/08/16 12:09:27;;;;;;;1.05;0.52;;;;;;;;;;10509649;28;20068;-78
2022/08/16 12:14:31;;;;;;;0.50;0.40;;;;;;;;;;10500779;28;20052;-79
2022/08/16 12:19:35;;;;;;;2.50;0.57;;;;;;;;;;10494011;28;20036;-78
2022/08/16 12:24:40;;;;;;;0.70;0.43;;;;;;;;;;10517324;28;20432;-78
2022/08/16 12:29:43;;;;;;;0.55;0.30;;;;;;;;;;10517215;28;20048;-78
2022/08/16 12:34:46;;;;;;;0.60;0.60;;;;;;;;;;10499618;28;20516;-78
2022/08/16 12:39:53;;;;;;;1.02;0.70;;;;;;;;;;10505600;28;20052;-78
2022/08/16 12:44:57;;;;;;;1.60;0.50;;;;;;;;;;10508883;28;20041;-78
2022/08/16 12:50:00;;;;;;;0.60;0.60;;;;;;;;;;10498345;28;20042;-78
2022/08/16 12:55:06;;;;;;;0.75;0.40;;;;;;;;;;10497282;28;20109;-78
2022/08/16 13:00:15;;;;;;;1.23;0.60;;;;;;;;;;10485676;28;20037;-80
2022/08/16 13:05:18;;;;;;;1.30;0.40;;;;;;;;;;10502876;28;20036;-78
2022/08/16 13:10:25;;;;;;;0.40;0.40;;;;;;;;;;10489995;28;20041;-79
2022/08/16 13:15:29;;;;;;;0.88;0.50;;;;;;;;;;10489228;28;20048;-78
2022/08/16 13:20:33;;;;;;;0.77;0.50;;;;;;;;;;10489555;28;20103;-80
2022/08/16 13:25:40;;;;;;;0.30;0.30;;;;;;;;;;10468012;28;20049;-78
2022/08/16 13:30:46;;;;;;;0.45;0.45;;;;;;;;;;10475903;28;20040;-79
2022/08/16 13:35:52;;;;;;;0.63;0.50;;;;;;;;;;10486184;28;20584;-79
2022/08/16 13:41:02;;;;;;;0.95;0.65;;;;;;;;;;10469930;28;20043;-79
2022/08/16 13:46:06;;;;;;;0.40;0.40;;;;;;;;;;10465869;28;20120;-77
2022/08/16 13:51:09;;;;;;;0.33;0.33;;;;;;;;;;10458163;28;20033;-79
2022/08/16 13:56:17;;;;;;;0.47;0.40;;;;;;;;;;10464569;28;20063;-79
2022/08/16 14:14:42;;;;;;;0.30;0.30;;;;;;;;;;10439056;28;20140;-79
2022/08/16 14:19:46;;;;;;;0.50;0.50;;;;;;;;;;10486506;28;20086;-79
2022/08/16 14:24:51;;;;;;;0.50;0.43;;;;;;;;;;10482128;28;20044;-79
2022/08/16 14:29:57;;;;;;;0.40;0.40;;;;;;;;;;10473692;28;20071;-79
2022/08/16 14:35:05;;;;;;;0.40;0.40;;;;;;;;;;10475393;28;20068;-79
2022/08/16 14:40:13;;;;;;;0.77;0.47;;;;;;;;;;10484855;28;20065;-79
2022/08/16 14:45:21;;;;;;;0.80;0.30;;;;;;;;;;10484835;28;20080;-79
2022/08/16 14:50:26;;;;;;;0.50;0.40;;;;;;;;;;10485914;28;20217;-79
2022/08/16 14:55:32;;;;;;;0.60;0.32;;;;;;;;;;10500445;28;20041;-79
2022/08/16 15:00:36;;;;;;;1.88;0.68;;;;;;;;;;10481507;28;20064;-80
2022/08/16 15:05:41;;;;;;;;;;;;;;;;;;10493757;28;20044;-78
2022/08/16 15:17:47;;;;;;;0.60;0.47;;;;;;;;;;10499192;28;20045;-79
2022/08/16 15:23:31;;;;;;;0.38;0.38;;;;;;;;;;10489383;28;20107;-79
2022/08/16 15:35:08;;;;;;;0.40;0.40;;;;;;;;;;10443974;28;20058;-79
2022/08/16 15:43:10;;;;;;;0.57;0.50;;;;;;;;;;10571247;27;20355;-78
2022/08/16 15:48:14;;;;;;;0.50;0.50;;;;;;;;;;10544708;28;20040;-77
2022/08/16 15:53:22;;;;;;;2.53;0.45;;;;;;;;;;10536979;28;20058;-78
2022/08/16 15:58:27;;;;;;;0.60;0.43;;;;;;;;;;10535870;28;20562;-78
2022/08/16 16:03:32;;;;;;;0.30;0.30;;;;;;;;;;10535067;28;20044;-78
2022/08/16 16:08:35;;;;;;;0.20;0.20;;;;;;;;;;10563138;28;20044;-78
2022/08/16 16:13:40;;;;;;;1.00;0.50;;;;;;;;;;10532119;28;20074;-78
2022/08/16 16:18:44;;;;;;;1.02;0.40;;;;;;;;;;10532241;28;20060;-78
2022/08/16 16:23:49;;;;;;;0.65;0.30;;;;;;;;;;10535861;28;20048;-79
2022/08/16 16:28:55;;;;;;;0.50;0.40;;;;;;;;;;10531680;28;20148;-79
2022/08/16 16:33:59;;;;;;;0.50;0.40;;;;;;;;;;10527477;28;20043;-80
2022/08/16 16:39:06;;;;;;;0.90;0.40;;;;;;;;;;10531661;28;20075;-80
2022/08/16 16:44:10;;;;;;;0.60;0.40;;;;;;;;;;10526985;28;20075;-79
2022/08/16 16:49:15;;;;;;;0.40;0.40;;;;;;;;;;10527925;28;20072;-80
2022/08/16 16:54:19;;;;;;;0.68;0.40;;;;;;;;;;10499052;28;20067;-78
2022/08/16 16:59:24;;;;;;;0.45;0.40;;;;;;;;;;10515684;28;20049;-79
2022/08/16 17:04:27;;;;;;;0.50;0.32;;;;;;;;;;10512277;28;20064;-80
2022/08/16 17:09:31;;;;;;;0.38;0.35;;;;;;;;;;10509099;28;20064;-79
2022/08/16 17:14:36;;;;;;;0.30;0.30;;;;;;;;;;10494830;28;20041;-79
2022/08/16 17:19:40;;;;;;;0.60;0.35;;;;;;;;;;10507637;28;20123;-78
2022/08/16 17:24:46;;;;;;;0.43;0.40;;;;;;;;;;10492632;28;20048;-79
2022/08/16 17:29:51;;;;;;;0.35;0.32;;;;;;;;;;10504135;28;20056;-77
2022/08/16 17:34:54;;;;;;;0.43;0.43;;;;;;;;;;10498666;28;20123;-79
2022/08/16 17:39:57;;;;;;;2.05;0.43;;;;;;;;;;10505551;28;20116;-78
2022/08/16 17:45:02;;;;;;;0.32;0.30;;;;;;;;;;10498289;28;20536;-79
2022/08/16 17:50:06;;;;;;;0.40;0.40;;;;;;;;;;10501505;28;20052;-78
2022/08/16 17:55:20;;;;;;;0.25;0.25;;;;;;;;;;10498758;28;20696;-79
2022/08/16 18:00:26;;;;;;;0.28;0.28;;;;;;;;;;10500574;28;20049;-80
2022/08/16 18:05:31;;;;;;;0.30;0.30;;;;;;;;;;10495974;28;20575;-79
2022/08/16 18:10:34;;;;;;;0.30;0.30;;;;;;;;;;10492047;28;20104;-80
2022/08/16 18:15:41;;;;;;;0.57;0.50;;;;;;;;;;10497699;28;20112;-79
2022/08/16 18:26:06;;;;;;;0.82;0.32;;;;;;;;;;10501418;28;20051;-79
2022/08/16 18:31:11;;;;;;;2.38;0.60;;;;;;;;;;10514255;28;20040;-79
2022/08/16 18:36:14;;;;;;;2.53;0.75;;;;;;;;;;10479660;28;20064;-79
2022/08/16 18:41:26;;;;;;;1.65;0.80;;;;;;;;;;10420534;28;20048;-78
2022/08/16 18:46:47;;;;;;;1.33;0.80;;;;;;;;;;10458600;28;20041;-78
2022/08/16 18:51:55;;;;;;;3.60;0.65;;;;;;;;;;10445773;28;20056;-78
2022/08/16 18:57:01;;;;;;;1.42;0.85;;;;;;;;;;10455940;28;20755;-79
2022/08/16 19:02:09;;;;;;;1.50;0.60;;;;;;;;;;10458473;28;20562;-79
2022/08/16 19:07:12;;;;;;;0.77;0.60;;;;;;;;;;10461727;28;20409;-79
2022/08/16 19:12:16;;;;;;;1.50;0.60;;;;;;;;;;10462486;28;20128;-79
2022/08/16 19:17:20;;;;;;;1.10;0.70;;;;;;;;;;10456583;28;20045;-78
2022/08/16 19:22:25;;;;;;;1.83;1.13;;;;;;;;;;10457008;28;20135;-79
2022/08/16 19:27:40;;;;;;;2.33;0.60;;;;;;;;;;10448068;28;20049;-78
2022/08/16 19:32:45;;;;;;;1.65;0.70;;;;;;;;;;10454827;28;20112;-78
2022/08/16 19:37:48;;;;;;;0.65;0.60;;;;;;;;;;10446728;28;20053;-78
2022/08/16 19:42:51;;;;;;;1.05;0.50;;;;;;;;;;10445619;28;20052;-78
2022/08/16 19:48:01;;;;;;;1.23;0.73;;;;;;;;;;10447996;28;20049;-78
2022/08/16 19:53:07;;;;;;;1.67;0.90;;;;;;;;;;10448297;28;20083;-78
2022/08/16 19:58:12;;;;;;;2.58;0.80;;;;;;;;;;10447442;28;20414;-78
2022/08/16 20:03:19;;;;;;;1.45;0.80;;;;;;;;;;10444275;28;20509;-77
2022/08/16 20:08:23;;;;;;;0.98;0.88;;;;;;;;;;10446054;28;20049;-79
2022/08/16 20:13:27;;;;;;;3.17;0.90;;;;;;;;;;10445228;28;20571;-79
2022/08/16 20:18:32;;;;;;;1.20;0.82;;;;;;;;;;10440784;28;20068;-79
2022/08/16 20:23:35;;;;;;;1.70;0.77;;;;;;;;;;10452327;28;20520;-78
2022/08/16 20:28:41;;;;;;;3.03;0.93;;;;;;;;;;10444055;28;20310;-78
2022/08/16 20:33:46;;;;;;;2.22;1.02;;;;;;;;;;10451272;28;20056;-79
2022/08/16 20:38:51;;;;;;;4.63;1.00;;;;;;;;;;10446825;28;20053;-77
2022/08/16 20:43:54;;;;;;;4.70;0.60;;;;;;;;;;10450807;28;20292;-78
2022/08/16 20:48:59;;;;;;;2.85;0.88;;;;;;;;;;10448318;28;20048;-78
2022/08/16 20:54:02;;;;;;;1.52;0.98;;;;;;;;;;10451231;28;20493;-77
2022/08/16 20:59:06;;;;;;;3.22;0.98;;;;;;;;;;10448355;28;20120;-78
2022/08/16 21:04:11;;;;;;;1.55;0.90;;;;;;;;;;10450718;28;20045;-78
2022/08/16 21:09:14;;;;;;;2.57;1.10;;;;;;;;;;10449648;28;20635;-78
2022/08/16 21:14:18;;;;;;;2.75;1.10;;;;;;;;;;10452187;28;20055;-79
2022/08/16 21:19:24;;;;;;;1.70;0.80;;;;;;;;;;10447877;28;20117;-78
2022/08/16 21:24:37;;;;;;;2.00;1.10;;;;;;;;;;10452255;28;20052;-78
2022/08/16 21:29:55;;;;;;;0.95;0.88;;;;;;;;;;10441031;28;20041;-78
2022/08/16 21:35:05;;;;;;;1.55;1.17;;;;;;;;;;10448432;28;20071;-78
2022/08/16 21:40:10;;;;;;;0.95;0.85;;;;;;;;;;10447458;28;20065;-79
2022/08/16 21:45:14;;;;;;;1.50;0.98;;;;;;;;;;10448405;28;20065;-76
2022/08/16 21:50:19;;;;;;;2.28;1.55;;;;;;;;;;10440024;28;20064;-77
2022/08/16 21:55:22;;;;;;;2.85;1.30;;;;;;;;;;10446733;28;20140;-79
2022/08/16 22:16:54;;;;;;;1.38;1.20;;;;;;;;;;12931941;22;1248673;-84
2022/08/16 22:22:00;;;;;;;1.10;1.00;;;;;;;;;;12984799;22;20023;-84
2022/08/16 22:27:04;;;;;;;1.73;1.10;;;;;;;;;;12893606;23;20024;-83
2022/08/16 22:32:09;;;;;;;2.22;1.02;;;;;;;;;;12893854;22;20024;-84
2022/08/16 22:37:12;;;;;;;1.33;1.00;;;;;;;;;;12893456;23;20024;-83
2022/08/16 22:42:16;;;;;;;1.13;1.05;;;;;;;;;;12893204;22;20012;-83
2022/08/16 22:47:21;;;;;;;2.10;1.10;;;;;;;;;;12936448;22;20016;-84
2022/08/16 22:52:25;;;;;;;1.42;1.00;;;;;;;;;;12892145;22;20023;-84
2022/08/16 22:57:28;;;;;;;0.85;0.85;;;;;;;;;;12919536;23;20462;-84
2022/08/16 23:02:33;;;;;;;1.45;1.10;;;;;;;;;;12892572;22;20016;-84
2022/08/16 23:07:36;;;;;;;1.08;0.98;;;;;;;;;;12935181;22;20051;-83
2022/08/16 23:12:48;;;;;;;1.10;1.00;;;;;;;;;;12891796;22;20091;-84
2022/08/16 23:17:53;;;;;;;1.20;1.10;;;;;;;;;;12878292;23;20341;-83
2022/08/16 23:22:58;;;;;;;1.20;1.10;;;;;;;;;;12878011;22;20012;-83
2022/08/16 23:28:03;;;;;;;1.38;1.10;;;;;;;;;;12878461;23;20028;-84
2022/08/16 23:33:10;;;;;;;1.17;1.05;;;;;;;;;;12878826;22;20054;-83
2022/08/16 23:38:14;;;;;;;1.30;1.20;;;;;;;;;;12878294;23;20444;-83
2022/08/16 23:43:20;;;;;;;1.17;1.08;;;;;;;;;;12877637;22;20024;-83
2022/08/16 23:48:26;;;;;;;1.40;1.30;;;;;;;;;;12877185;23;20030;-84
2022/08/16 23:53:32;;;;;;;1.30;1.20;;;;;;;;;;12915499;22;20052;-83
2022/08/16 23:58:37;;;;;;;1.05;1.00;;;;;;;;;;12877804;23;20020;-83
